Windom, Minnesota
Current Conditions -  °F | °C
As of 3:53 AM on Monday 22 Dec 2014 (Local Time) from KMWM Reporting Station
Haze Haze  
Wind Chill: 31°   Ceiling: 400
Heat Index: 39°   Visibility: 4mi
Dew Point: 39°   Wind: 14mph
Humidity: 100%   Direction: 150°SSE
Pressure: 29.57"   Gusts: 20mph
Location:  43.87°N, 95.12°W
Report Text: KMWM 220953Z AUTO 15012G17KT 4SM BR OVC004 04/04 A2957 RMK AO2
Loading
Personal Weather Stations






























Interactive Weather Map New forecast layout! Learn more

10-Day Weather Forecast

Advertisements
Track Severe Weather on mobile